sensor_id;sensor_type;location;lat;lon;timestamp;temperature;humidity
39957;DHT22;48483;44.640;7.494;2022-09-28T00:00:19;15.00;91.30
39957;DHT22;48483;44.640;7.494;2022-09-28T00:02:46;15.10;92.00
39957;DHT22;48483;44.640;7.494;2022-09-28T00:05:13;15.10;92.20
39957;DHT22;48483;44.640;7.494;2022-09-28T00:07:40;15.00;92.20
39957;DHT22;48483;44.640;7.494;2022-09-28T00:10:07;15.10;92.40
39957;DHT22;48483;44.640;7.494;2022-09-28T00:12:34;15.00;92.50
39957;DHT22;48483;44.640;7.494;2022-09-28T00:15:03;15.00;92.40
39957;DHT22;48483;44.640;7.494;2022-09-28T00:17:29;15.00;92.20
39957;DHT22;48483;44.640;7.494;2022-09-28T00:19:56;15.10;92.20
39957;DHT22;48483;44.640;7.494;2022-09-28T00:22:23;15.10;92.30
39957;DHT22;48483;44.640;7.494;2022-09-28T00:24:49;15.10;92.80
39957;DHT22;48483;44.640;7.494;2022-09-28T00:27:16;15.00;93.20
39957;DHT22;48483;44.640;7.494;2022-09-28T00:29:43;15.00;93.70
39957;DHT22;48483;44.640;7.494;2022-09-28T00:32:12;15.00;94.20
39957;DHT22;48483;44.640;7.494;2022-09-28T00:34:40;14.90;94.60
39957;DHT22;48483;44.640;7.494;2022-09-28T00:37:09;14.90;94.30
39957;DHT22;48483;44.640;7.494;2022-09-28T00:39:36;14.90;94.60
39957;DHT22;48483;44.640;7.494;2022-09-28T00:42:11;14.90;95.00
39957;DHT22;48483;44.640;7.494;2022-09-28T00:44:44;14.90;95.30
39957;DHT22;48483;44.640;7.494;2022-09-28T00:47:22;14.80;95.60
39957;DHT22;48483;44.640;7.494;2022-09-28T00:49:54;14.60;95.70
39957;DHT22;48483;44.640;7.494;2022-09-28T00:52:25;14.60;95.80
39957;DHT22;48483;44.640;7.494;2022-09-28T00:54:54;14.50;95.90
39957;DHT22;48483;44.640;7.494;2022-09-28T00:57:23;14.50;96.10
39957;DHT22;48483;44.640;7.494;2022-09-28T00:59:50;14.40;96.40
39957;DHT22;48483;44.640;7.494;2022-09-28T01:02:19;14.40;96.50
39957;DHT22;48483;44.640;7.494;2022-09-28T01:04:46;14.30;96.70
39957;DHT22;48483;44.640;7.494;2022-09-28T01:07:13;14.30;96.80
39957;DHT22;48483;44.640;7.494;2022-09-28T01:09:42;14.30;96.90
39957;DHT22;48483;44.640;7.494;2022-09-28T01:12:11;14.30;97.20
39957;DHT22;48483;44.640;7.494;2022-09-28T01:14:39;14.30;97.30
39957;DHT22;48483;44.640;7.494;2022-09-28T01:17:09;14.30;97.40
39957;DHT22;48483;44.640;7.494;2022-09-28T01:20:25;14.30;97.40
39957;DHT22;48483;44.640;7.494;2022-09-28T01:26:38;14.30;97.30
39957;DHT22;48483;44.640;7.494;2022-09-28T01:29:15;14.30;97.60
39957;DHT22;48483;44.640;7.494;2022-09-28T01:31:45;14.30;97.90
39957;DHT22;48483;44.640;7.494;2022-09-28T01:34:17;14.30;98.10
39957;DHT22;48483;44.640;7.494;2022-09-28T01:36:48;14.30;98.20
39957;DHT22;48483;44.640;7.494;2022-09-28T01:39:19;14.30;98.40
39957;DHT22;48483;44.640;7.494;2022-09-28T01:41:53;14.30;98.60
39957;DHT22;48483;44.640;7.494;2022-09-28T01:44:26;14.30;98.70
39957;DHT22;48483;44.640;7.494;2022-09-28T01:46:53;14.30;98.60
39957;DHT22;48483;44.640;7.494;2022-09-28T01:49:24;14.30;98.90
39957;DHT22;48483;44.640;7.494;2022-09-28T01:51:56;14.30;98.80
39957;DHT22;48483;44.640;7.494;2022-09-28T01:54:30;14.30;98.60
39957;DHT22;48483;44.640;7.494;2022-09-28T01:57:05;14.30;98.40
39957;DHT22;48483;44.640;7.494;2022-09-28T01:59:36;14.30;98.50
39957;DHT22;48483;44.640;7.494;2022-09-28T02:02:08;14.30;97.30
39957;DHT22;48483;44.640;7.494;2022-09-28T02:04:39;14.30;97.60
39957;DHT22;48483;44.640;7.494;2022-09-28T02:07:12;14.30;97.50
39957;DHT22;48483;44.640;7.494;2022-09-28T02:09:43;14.30;95.90
39957;DHT22;48483;44.640;7.494;2022-09-28T02:12:17;14.40;94.10
39957;DHT22;48483;44.640;7.494;2022-09-28T02:14:48;14.40;92.80
39957;DHT22;48483;44.640;7.494;2022-09-28T02:17:14;14.50;92.00
39957;DHT22;48483;44.640;7.494;2022-09-28T02:19:46;14.50;91.70
39957;DHT22;48483;44.640;7.494;2022-09-28T02:22:20;14.60;91.70
39957;DHT22;48483;44.640;7.494;2022-09-28T02:24:53;14.60;91.30
39957;DHT22;48483;44.640;7.494;2022-09-28T02:27:33;14.70;90.90
39957;DHT22;48483;44.640;7.494;2022-09-28T02:30:00;14.70;91.00
39957;DHT22;48483;44.640;7.494;2022-09-28T02:32:30;14.70;90.10
39957;DHT22;48483;44.640;7.494;2022-09-28T02:34:58;14.80;90.20
39957;DHT22;48483;44.640;7.494;2022-09-28T02:37:25;14.80;89.40
39957;DHT22;48483;44.640;7.494;2022-09-28T02:39:52;14.80;89.90
39957;DHT22;48483;44.640;7.494;2022-09-28T02:42:22;14.80;89.00
39957;DHT22;48483;44.640;7.494;2022-09-28T02:45:11;14.80;88.70
39957;DHT22;48483;44.640;7.494;2022-09-28T02:47:55;14.80;88.60
39957;DHT22;48483;44.640;7.494;2022-09-28T02:50:35;14.80;89.20
39957;DHT22;48483;44.640;7.494;2022-09-28T02:53:26;14.80;89.50
39957;DHT22;48483;44.640;7.494;2022-09-28T02:56:08;14.80;88.10
39957;DHT22;48483;44.640;7.494;2022-09-28T02:58:38;14.70;87.70
39957;DHT22;48483;44.640;7.494;2022-09-28T03:01:20;14.70;87.80
39957;DHT22;48483;44.640;7.494;2022-09-28T03:03:56;14.70;88.50
39957;DHT22;48483;44.640;7.494;2022-09-28T03:06:29;14.70;87.00
39957;DHT22;48483;44.640;7.494;2022-09-28T03:09:02;14.70;88.20
39957;DHT22;48483;44.640;7.494;2022-09-28T03:11:36;14.70;86.20
39957;DHT22;48483;44.640;7.494;2022-09-28T03:14:06;14.70;86.20
39957;DHT22;48483;44.640;7.494;2022-09-28T03:17:00;14.70;86.00
39957;DHT22;48483;44.640;7.494;2022-09-28T03:19:30;14.70;86.20
39957;DHT22;48483;44.640;7.494;2022-09-28T03:21:59;14.70;86.60
39957;DHT22;48483;44.640;7.494;2022-09-28T03:24:26;14.80;85.70
39957;DHT22;48483;44.640;7.494;2022-09-28T03:26:53;14.80;85.50
39957;DHT22;48483;44.640;7.494;2022-09-28T03:29:19;14.80;85.80
39957;DHT22;48483;44.640;7.494;2022-09-28T03:31:51;14.80;86.30
39957;DHT22;48483;44.640;7.494;2022-09-28T03:34:19;14.80;86.30
39957;DHT22;48483;44.640;7.494;2022-09-28T03:36:45;14.80;87.50
39957;DHT22;48483;44.640;7.494;2022-09-28T03:39:12;14.80;87.60
39957;DHT22;48483;44.640;7.494;2022-09-28T03:41:38;14.80;87.80
39957;DHT22;48483;44.640;7.494;2022-09-28T03:44:05;14.70;88.80
39957;DHT22;48483;44.640;7.494;2022-09-28T03:46:33;14.70;89.70
39957;DHT22;48483;44.640;7.494;2022-09-28T03:49:04;14.70;90.20
39957;DHT22;48483;44.640;7.494;2022-09-28T03:51:32;14.60;90.40
39957;DHT22;48483;44.640;7.494;2022-09-28T03:53:59;14.60;90.80
39957;DHT22;48483;44.640;7.494;2022-09-28T03:56:26;14.50;91.00
39957;DHT22;48483;44.640;7.494;2022-09-28T03:58:52;14.50;91.60
39957;DHT22;48483;44.640;7.494;2022-09-28T04:01:19;14.50;91.90
39957;DHT22;48483;44.640;7.494;2022-09-28T04:03:46;14.40;92.10
39957;DHT22;48483;44.640;7.494;2022-09-28T04:06:18;14.40;92.30
39957;DHT22;48483;44.640;7.494;2022-09-28T04:08:46;14.40;92.70
39957;DHT22;48483;44.640;7.494;2022-09-28T04:11:13;14.30;93.00
39957;DHT22;48483;44.640;7.494;2022-09-28T04:13:40;14.40;93.20
39957;DHT22;48483;44.640;7.494;2022-09-28T04:16:10;14.40;92.40
39957;DHT22;48483;44.640;7.494;2022-09-28T04:18:37;14.40;92.50
39957;DHT22;48483;44.640;7.494;2022-09-28T04:21:16;14.40;93.30
39957;DHT22;48483;44.640;7.494;2022-09-28T04:23:50;14.40;93.60
39957;DHT22;48483;44.640;7.494;2022-09-28T04:26:20;14.40;93.00
39957;DHT22;48483;44.640;7.494;2022-09-28T04:28:47;14.40;91.80
39957;DHT22;48483;44.640;7.494;2022-09-28T04:31:37;14.40;90.80
39957;DHT22;48483;44.640;7.494;2022-09-28T04:34:04;14.50;88.50
39957;DHT22;48483;44.640;7.494;2022-09-28T04:36:31;14.60;87.40
39957;DHT22;48483;44.640;7.494;2022-09-28T04:38:59;14.60;86.90
39957;DHT22;48483;44.640;7.494;2022-09-28T04:41:28;14.60;85.50
39957;DHT22;48483;44.640;7.494;2022-09-28T04:43:55;14.70;84.30
39957;DHT22;48483;44.640;7.494;2022-09-28T04:46:24;14.70;84.10
39957;DHT22;48483;44.640;7.494;2022-09-28T04:49:23;14.70;84.50
39957;DHT22;48483;44.640;7.494;2022-09-28T04:51:55;14.70;85.60
39957;DHT22;48483;44.640;7.494;2022-09-28T04:54:23;14.70;84.30
39957;DHT22;48483;44.640;7.494;2022-09-28T04:56:50;14.70;84.70
39957;DHT22;48483;44.640;7.494;2022-09-28T04:59:18;14.70;84.50
39957;DHT22;48483;44.640;7.494;2022-09-28T05:01:44;14.70;84.40
39957;DHT22;48483;44.640;7.494;2022-09-28T05:04:31;14.70;84.40
39957;DHT22;48483;44.640;7.494;2022-09-28T05:07:09;14.80;84.40
39957;DHT22;48483;44.640;7.494;2022-09-28T05:09:38;14.70;84.40
39957;DHT22;48483;44.640;7.494;2022-09-28T05:12:05;14.70;84.70
39957;DHT22;48483;44.640;7.494;2022-09-28T05:14:33;14.80;84.60
39957;DHT22;48483;44.640;7.494;2022-09-28T05:17:00;14.70;84.70
39957;DHT22;48483;44.640;7.494;2022-09-28T05:19:27;14.70;87.00
39957;DHT22;48483;44.640;7.494;2022-09-28T05:22:02;14.60;88.50
39957;DHT22;48483;44.640;7.494;2022-09-28T05:24:34;14.60;89.70
39957;DHT22;48483;44.640;7.494;2022-09-28T05:27:02;14.50;90.40
39957;DHT22;48483;44.640;7.494;2022-09-28T05:29:29;14.50;90.90
39957;DHT22;48483;44.640;7.494;2022-09-28T05:32:14;14.50;91.20
39957;DHT22;48483;44.640;7.494;2022-09-28T05:35:06;14.50;91.60
39957;DHT22;48483;44.640;7.494;2022-09-28T05:37:42;14.40;91.80
39957;DHT22;48483;44.640;7.494;2022-09-28T05:40:09;14.40;92.00
39957;DHT22;48483;44.640;7.494;2022-09-28T05:42:39;14.40;92.30
39957;DHT22;48483;44.640;7.494;2022-09-28T05:45:07;14.30;92.80
39957;DHT22;48483;44.640;7.494;2022-09-28T05:47:36;14.30;92.80
39957;DHT22;48483;44.640;7.494;2022-09-28T05:50:06;14.30;92.90
39957;DHT22;48483;44.640;7.494;2022-09-28T05:52:33;14.30;93.10
39957;DHT22;48483;44.640;7.494;2022-09-28T05:55:00;14.30;93.10
39957;DHT22;48483;44.640;7.494;2022-09-28T05:57:27;14.20;93.10
39957;DHT22;48483;44.640;7.494;2022-09-28T05:59:56;14.30;93.50
39957;DHT22;48483;44.640;7.494;2022-09-28T06:02:24;14.30;93.00
39957;DHT22;48483;44.640;7.494;2022-09-28T06:04:51;14.30;93.00
39957;DHT22;48483;44.640;7.494;2022-09-28T06:07:19;14.30;93.10
39957;DHT22;48483;44.640;7.494;2022-09-28T06:09:47;14.30;93.30
39957;DHT22;48483;44.640;7.494;2022-09-28T06:12:18;14.30;93.40
39957;DHT22;48483;44.640;7.494;2022-09-28T06:14:48;14.30;94.50
39957;DHT22;48483;44.640;7.494;2022-09-28T06:17:16;14.30;95.10
39957;DHT22;48483;44.640;7.494;2022-09-28T06:19:47;14.20;95.50
39957;DHT22;48483;44.640;7.494;2022-09-28T06:22:35;14.30;95.20
39957;DHT22;48483;44.640;7.494;2022-09-28T06:25:08;14.30;94.80
39957;DHT22;48483;44.640;7.494;2022-09-28T06:27:34;14.30;94.60
39957;DHT22;48483;44.640;7.494;2022-09-28T06:30:01;14.40;94.20
39957;DHT22;48483;44.640;7.494;2022-09-28T06:32:30;14.40;94.40
39957;DHT22;48483;44.640;7.494;2022-09-28T06:34:57;14.40;94.10
39957;DHT22;48483;44.640;7.494;2022-09-28T06:37:44;14.40;93.90
39957;DHT22;48483;44.640;7.494;2022-09-28T06:40:11;14.30;93.90
39957;DHT22;48483;44.640;7.494;2022-09-28T06:42:37;14.30;93.50
39957;DHT22;48483;44.640;7.494;2022-09-28T06:45:22;14.30;93.60
39957;DHT22;48483;44.640;7.494;2022-09-28T06:48:12;14.30;93.90
39957;DHT22;48483;44.640;7.494;2022-09-28T06:50:42;14.40;94.00
39957;DHT22;48483;44.640;7.494;2022-09-28T06:53:30;14.40;93.20
39957;DHT22;48483;44.640;7.494;2022-09-28T06:56:18;14.40;93.10
39957;DHT22;48483;44.640;7.494;2022-09-28T06:58:46;14.50;93.50
39957;DHT22;48483;44.640;7.494;2022-09-28T07:01:13;14.50;92.90
39957;DHT22;48483;44.640;7.494;2022-09-28T07:03:55;14.60;92.00
39957;DHT22;48483;44.640;7.494;2022-09-28T07:06:23;14.80;92.00
39957;DHT22;48483;44.640;7.494;2022-09-28T07:09:30;14.90;91.80
39957;DHT22;48483;44.640;7.494;2022-09-28T07:12:20;15.10;91.10
39957;DHT22;48483;44.640;7.494;2022-09-28T07:15:00;15.20;90.90
39957;DHT22;48483;44.640;7.494;2022-09-28T07:17:28;15.20;91.10
39957;DHT22;48483;44.640;7.494;2022-09-28T07:19:57;15.20;91.40
39957;DHT22;48483;44.640;7.494;2022-09-28T07:22:24;15.20;91.60
39957;DHT22;48483;44.640;7.494;2022-09-28T07:24:52;15.20;90.90
39957;DHT22;48483;44.640;7.494;2022-09-28T07:27:38;15.10;91.20
39957;DHT22;48483;44.640;7.494;2022-09-28T07:30:15;15.10;91.20
39957;DHT22;48483;44.640;7.494;2022-09-28T07:33:20;15.10;91.20
39957;DHT22;48483;44.640;7.494;2022-09-28T07:35:54;15.10;91.10
39957;DHT22;48483;44.640;7.494;2022-09-28T07:38:24;15.00;90.50
39957;DHT22;48483;44.640;7.494;2022-09-28T07:40:53;15.00;91.10
39957;DHT22;48483;44.640;7.494;2022-09-28T07:43:45;15.00;90.60
39957;DHT22;48483;44.640;7.494;2022-09-28T07:46:12;15.00;90.90
39957;DHT22;48483;44.640;7.494;2022-09-28T07:48:44;15.00;90.60
39957;DHT22;48483;44.640;7.494;2022-09-28T07:51:33;15.10;90.30
39957;DHT22;48483;44.640;7.494;2022-09-28T07:54:20;15.10;90.10
39957;DHT22;48483;44.640;7.494;2022-09-28T07:57:03;15.20;90.30
39957;DHT22;48483;44.640;7.494;2022-09-28T07:59:57;15.20;90.60
39957;DHT22;48483;44.640;7.494;2022-09-28T08:02:43;15.30;91.10
39957;DHT22;48483;44.640;7.494;2022-09-28T08:05:11;15.30;90.80
39957;DHT22;48483;44.640;7.494;2022-09-28T08:07:41;15.30;90.80
39957;DHT22;48483;44.640;7.494;2022-09-28T08:10:11;15.30;90.80
39957;DHT22;48483;44.640;7.494;2022-09-28T08:12:59;15.30;90.90
39957;DHT22;48483;44.640;7.494;2022-09-28T08:15:47;15.40;91.30
39957;DHT22;48483;44.640;7.494;2022-09-28T08:18:24;15.40;91.90
39957;DHT22;48483;44.640;7.494;2022-09-28T08:20:51;15.40;92.20
39957;DHT22;48483;44.640;7.494;2022-09-28T08:23:38;15.40;92.50
39957;DHT22;48483;44.640;7.494;2022-09-28T08:26:06;15.40;93.00
39957;DHT22;48483;44.640;7.494;2022-09-28T08:28:33;15.40;92.20
39957;DHT22;48483;44.640;7.494;2022-09-28T08:31:07;15.40;91.40
39957;DHT22;48483;44.640;7.494;2022-09-28T08:33:52;15.40;90.40
39957;DHT22;48483;44.640;7.494;2022-09-28T08:36:48;15.40;89.70
39957;DHT22;48483;44.640;7.494;2022-09-28T08:39:54;15.50;90.00
39957;DHT22;48483;44.640;7.494;2022-09-28T08:42:42;15.50;88.80
39957;DHT22;48483;44.640;7.494;2022-09-28T08:45:43;15.50;88.30
39957;DHT22;48483;44.640;7.494;2022-09-28T08:48:34;15.50;88.10
39957;DHT22;48483;44.640;7.494;2022-09-28T08:51:49;15.50;89.20
39957;DHT22;48483;44.640;7.494;2022-09-28T08:54:29;15.60;88.70
39957;DHT22;48483;44.640;7.494;2022-09-28T08:57:05;15.60;87.60
39957;DHT22;48483;44.640;7.494;2022-09-28T08:59:42;15.60;86.90
39957;DHT22;48483;44.640;7.494;2022-09-28T09:02:19;15.60;87.60
39957;DHT22;48483;44.640;7.494;2022-09-28T09:04:48;15.60;88.10
39957;DHT22;48483;44.640;7.494;2022-09-28T09:07:49;15.70;88.00
39957;DHT22;48483;44.640;7.494;2022-09-28T09:10:39;15.70;87.50
39957;DHT22;48483;44.640;7.494;2022-09-28T09:13:26;15.80;88.20
39957;DHT22;48483;44.640;7.494;2022-09-28T09:16:05;15.90;88.30
39957;DHT22;48483;44.640;7.494;2022-09-28T09:19:03;15.90;87.90
39957;DHT22;48483;44.640;7.494;2022-09-28T09:21:47;16.00;87.60
39957;DHT22;48483;44.640;7.494;2022-09-28T09:24:23;16.00;87.50
39957;DHT22;48483;44.640;7.494;2022-09-28T09:27:03;16.00;88.20
39957;DHT22;48483;44.640;7.494;2022-09-28T09:29:50;16.10;88.00
39957;DHT22;48483;44.640;7.494;2022-09-28T09:32:32;16.00;87.20
39957;DHT22;48483;44.640;7.494;2022-09-28T09:38:14;16.10;88.40
39957;DHT22;48483;44.640;7.494;2022-09-28T09:41:13;16.30;88.80
39957;DHT22;48483;44.640;7.494;2022-09-28T09:44:18;16.30;89.10
39957;DHT22;48483;44.640;7.494;2022-09-28T09:47:16;16.30;88.20
39957;DHT22;48483;44.640;7.494;2022-09-28T09:49:51;16.40;88.60
39957;DHT22;48483;44.640;7.494;2022-09-28T09:52:24;16.50;88.90
39957;DHT22;48483;44.640;7.494;2022-09-28T09:54:54;16.50;87.90
39957;DHT22;48483;44.640;7.494;2022-09-28T09:57:38;16.50;87.70
39957;DHT22;48483;44.640;7.494;2022-09-28T10:00:16;16.60;87.30
39957;DHT22;48483;44.640;7.494;2022-09-28T10:03:01;16.60;87.40
39957;DHT22;48483;44.640;7.494;2022-09-28T10:05:38;16.70;87.40
39957;DHT22;48483;44.640;7.494;2022-09-28T10:08:13;16.70;88.00
39957;DHT22;48483;44.640;7.494;2022-09-28T10:10:48;16.70;88.20
39957;DHT22;48483;44.640;7.494;2022-09-28T10:13:17;16.80;87.60
39957;DHT22;48483;44.640;7.494;2022-09-28T10:15:45;16.80;87.80
39957;DHT22;48483;44.640;7.494;2022-09-28T10:18:29;16.80;88.10
39957;DHT22;48483;44.640;7.494;2022-09-28T10:21:22;16.90;88.20
39957;DHT22;48483;44.640;7.494;2022-09-28T10:24:02;16.90;88.10
39957;DHT22;48483;44.640;7.494;2022-09-28T10:26:33;17.00;88.00
39957;DHT22;48483;44.640;7.494;2022-09-28T10:29:04;17.00;87.10
39957;DHT22;48483;44.640;7.494;2022-09-28T10:31:37;17.00;88.60
39957;DHT22;48483;44.640;7.494;2022-09-28T10:34:11;17.10;89.20
39957;DHT22;48483;44.640;7.494;2022-09-28T10:36:47;17.20;88.00
39957;DHT22;48483;44.640;7.494;2022-09-28T10:39:32;17.20;87.50
39957;DHT22;48483;44.640;7.494;2022-09-28T10:42:01;17.20;85.60
39957;DHT22;48483;44.640;7.494;2022-09-28T10:44:32;17.20;84.60
39957;DHT22;48483;44.640;7.494;2022-09-28T10:47:22;17.30;84.20
39957;DHT22;48483;44.640;7.494;2022-09-28T10:49:52;17.40;84.20
39957;DHT22;48483;44.640;7.494;2022-09-28T10:52:35;17.40;84.40
39957;DHT22;48483;44.640;7.494;2022-09-28T10:55:21;17.50;83.50
39957;DHT22;48483;44.640;7.494;2022-09-28T10:57:49;17.50;82.10
39957;DHT22;48483;44.640;7.494;2022-09-28T11:00:30;17.50;81.90
39957;DHT22;48483;44.640;7.494;2022-09-28T11:03:18;17.60;81.70
39957;DHT22;48483;44.640;7.494;2022-09-28T11:05:54;17.60;81.60
39957;DHT22;48483;44.640;7.494;2022-09-28T11:08:26;17.70;80.30
39957;DHT22;48483;44.640;7.494;2022-09-28T11:11:03;17.70;80.40
39957;DHT22;48483;44.640;7.494;2022-09-28T11:13:38;17.80;78.60
39957;DHT22;48483;44.640;7.494;2022-09-28T11:16:08;17.80;78.30
39957;DHT22;48483;44.640;7.494;2022-09-28T11:18:44;17.80;77.50
39957;DHT22;48483;44.640;7.494;2022-09-28T11:21:15;17.80;76.70
39957;DHT22;48483;44.640;7.494;2022-09-28T11:24:02;17.90;76.80
39957;DHT22;48483;44.640;7.494;2022-09-28T11:26:37;17.90;76.50
39957;DHT22;48483;44.640;7.494;2022-09-28T11:29:04;18.10;76.30
39957;DHT22;48483;44.640;7.494;2022-09-28T11:31:47;18.10;75.60
39957;DHT22;48483;44.640;7.494;2022-09-28T11:34:21;18.20;75.10
39957;DHT22;48483;44.640;7.494;2022-09-28T11:37:33;18.20;74.60
39957;DHT22;48483;44.640;7.494;2022-09-28T11:40:10;18.30;74.20
39957;DHT22;48483;44.640;7.494;2022-09-28T11:42:46;18.40;74.70
39957;DHT22;48483;44.640;7.494;2022-09-28T11:45:29;18.40;74.00
39957;DHT22;48483;44.640;7.494;2022-09-28T11:47:59;18.40;73.80
39957;DHT22;48483;44.640;7.494;2022-09-28T11:50:39;18.50;72.20
39957;DHT22;48483;44.640;7.494;2022-09-28T11:53:19;18.40;72.50
39957;DHT22;48483;44.640;7.494;2022-09-28T11:55:55;18.40;73.40
39957;DHT22;48483;44.640;7.494;2022-09-28T11:58:28;18.50;72.90
39957;DHT22;48483;44.640;7.494;2022-09-28T12:01:00;18.60;72.90
39957;DHT22;48483;44.640;7.494;2022-09-28T12:03:45;18.60;70.50
39957;DHT22;48483;44.640;7.494;2022-09-28T12:06:13;18.60;70.70
39957;DHT22;48483;44.640;7.494;2022-09-28T12:08:46;18.60;70.40
39957;DHT22;48483;44.640;7.494;2022-09-28T12:11:39;18.60;70.70
39957;DHT22;48483;44.640;7.494;2022-09-28T12:14:19;18.70;70.20
39957;DHT22;48483;44.640;7.494;2022-09-28T12:16:50;18.70;70.20
39957;DHT22;48483;44.640;7.494;2022-09-28T12:19:21;18.70;70.80
39957;DHT22;48483;44.640;7.494;2022-09-28T12:21:54;18.80;69.90
39957;DHT22;48483;44.640;7.494;2022-09-28T12:24:25;18.80;68.60
39957;DHT22;48483;44.640;7.494;2022-09-28T12:26:56;18.70;69.10
39957;DHT22;48483;44.640;7.494;2022-09-28T12:29:25;18.70;69.20
39957;DHT22;48483;44.640;7.494;2022-09-28T12:31:59;18.70;68.50
39957;DHT22;48483;44.640;7.494;2022-09-28T12:34:28;18.70;68.00
39957;DHT22;48483;44.640;7.494;2022-09-28T12:37:17;18.70;68.40
39957;DHT22;48483;44.640;7.494;2022-09-28T12:40:00;18.80;69.20
39957;DHT22;48483;44.640;7.494;2022-09-28T12:42:47;18.90;69.50
39957;DHT22;48483;44.640;7.494;2022-09-28T12:45:30;18.90;69.40
39957;DHT22;48483;44.640;7.494;2022-09-28T12:48:11;18.90;68.80
39957;DHT22;48483;44.640;7.494;2022-09-28T12:50:44;18.90;68.40
39957;DHT22;48483;44.640;7.494;2022-09-28T12:56:10;18.90;68.30
39957;DHT22;48483;44.640;7.494;2022-09-28T12:58:50;18.90;68.00
39957;DHT22;48483;44.640;7.494;2022-09-28T13:01:41;19.00;68.00
39957;DHT22;48483;44.640;7.494;2022-09-28T13:04:27;19.00;68.00
39957;DHT22;48483;44.640;7.494;2022-09-28T13:07:02;19.00;67.60
39957;DHT22;48483;44.640;7.494;2022-09-28T13:09:36;19.00;67.20
39957;DHT22;48483;44.640;7.494;2022-09-28T13:12:17;19.10;67.80
39957;DHT22;48483;44.640;7.494;2022-09-28T13:15:04;19.10;68.10
39957;DHT22;48483;44.640;7.494;2022-09-28T13:17:44;19.10;68.50
39957;DHT22;48483;44.640;7.494;2022-09-28T13:20:24;19.20;67.70
39957;DHT22;48483;44.640;7.494;2022-09-28T13:22:59;19.30;68.10
39957;DHT22;48483;44.640;7.494;2022-09-28T13:25:32;19.40;68.40
39957;DHT22;48483;44.640;7.494;2022-09-28T13:28:04;19.40;68.30
39957;DHT22;48483;44.640;7.494;2022-09-28T13:30:32;19.40;67.70
39957;DHT22;48483;44.640;7.494;2022-09-28T13:33:02;19.40;68.20
39957;DHT22;48483;44.640;7.494;2022-09-28T13:35:30;19.40;68.50
39957;DHT22;48483;44.640;7.494;2022-09-28T13:38:29;19.40;69.70
39957;DHT22;48483;44.640;7.494;2022-09-28T13:41:26;19.40;69.30
39957;DHT22;48483;44.640;7.494;2022-09-28T13:44:22;19.40;69.50
39957;DHT22;48483;44.640;7.494;2022-09-28T13:47:25;19.40;69.80
39957;DHT22;48483;44.640;7.494;2022-09-28T13:50:04;19.40;69.80
39957;DHT22;48483;44.640;7.494;2022-09-28T13:52:44;19.40;68.80
39957;DHT22;48483;44.640;7.494;2022-09-28T13:55:28;19.40;69.80
39957;DHT22;48483;44.640;7.494;2022-09-28T13:58:00;19.40;69.40
39957;DHT22;48483;44.640;7.494;2022-09-28T14:00:34;19.50;69.20
39957;DHT22;48483;44.640;7.494;2022-09-28T14:03:11;19.40;69.80
39957;DHT22;48483;44.640;7.494;2022-09-28T14:06:02;19.40;70.90
39957;DHT22;48483;44.640;7.494;2022-09-28T14:08:34;19.50;71.40
39957;DHT22;48483;44.640;7.494;2022-09-28T14:11:29;19.50;71.40
39957;DHT22;48483;44.640;7.494;2022-09-28T14:14:23;19.50;70.70
39957;DHT22;48483;44.640;7.494;2022-09-28T14:17:05;19.40;69.50
39957;DHT22;48483;44.640;7.494;2022-09-28T14:19:49;19.40;70.40
39957;DHT22;48483;44.640;7.494;2022-09-28T14:22:22;19.40;70.10
39957;DHT22;48483;44.640;7.494;2022-09-28T14:25:03;19.40;70.40
39957;DHT22;48483;44.640;7.494;2022-09-28T14:27:45;19.40;71.10
39957;DHT22;48483;44.640;7.494;2022-09-28T14:30:21;19.40;70.50
39957;DHT22;48483;44.640;7.494;2022-09-28T14:32:54;19.50;70.70
39957;DHT22;48483;44.640;7.494;2022-09-28T14:35:27;19.40;71.60
39957;DHT22;48483;44.640;7.494;2022-09-28T14:37:59;19.40;71.70
39957;DHT22;48483;44.640;7.494;2022-09-28T14:40:59;19.40;71.80
39957;DHT22;48483;44.640;7.494;2022-09-28T14:43:36;19.40;71.50
39957;DHT22;48483;44.640;7.494;2022-09-28T14:46:29;19.40;70.50
39957;DHT22;48483;44.640;7.494;2022-09-28T14:49:01;19.40;71.10
39957;DHT22;48483;44.640;7.494;2022-09-28T14:51:59;19.40;71.60
39957;DHT22;48483;44.640;7.494;2022-09-28T14:54:38;19.40;71.80
39957;DHT22;48483;44.640;7.494;2022-09-28T14:57:13;19.40;71.80
39957;DHT22;48483;44.640;7.494;2022-09-28T14:59:43;19.40;71.80
39957;DHT22;48483;44.640;7.494;2022-09-28T15:02:21;19.50;71.90
39957;DHT22;48483;44.640;7.494;2022-09-28T15:04:52;19.50;72.30
39957;DHT22;48483;44.640;7.494;2022-09-28T15:07:21;19.50;71.70
39957;DHT22;48483;44.640;7.494;2022-09-28T15:09:50;19.50;71.10
39957;DHT22;48483;44.640;7.494;2022-09-28T15:12:18;19.50;71.20
39957;DHT22;48483;44.640;7.494;2022-09-28T15:14:49;19.50;70.40
39957;DHT22;48483;44.640;7.494;2022-09-28T15:17:19;19.50;70.70
39957;DHT22;48483;44.640;7.494;2022-09-28T15:20:00;19.50;70.90
39957;DHT22;48483;44.640;7.494;2022-09-28T15:22:30;19.50;71.00
39957;DHT22;48483;44.640;7.494;2022-09-28T15:25:00;19.40;70.70
39957;DHT22;48483;44.640;7.494;2022-09-28T15:27:34;19.40;71.40
39957;DHT22;48483;44.640;7.494;2022-09-28T15:30:16;19.30;71.10
39957;DHT22;48483;44.640;7.494;2022-09-28T15:32:43;19.30;71.60
39957;DHT22;48483;44.640;7.494;2022-09-28T15:35:17;19.20;72.10
39957;DHT22;48483;44.640;7.494;2022-09-28T15:37:46;19.10;72.40
39957;DHT22;48483;44.640;7.494;2022-09-28T15:40:28;19.10;73.00
39957;DHT22;48483;44.640;7.494;2022-09-28T15:42:55;19.10;73.10
39957;DHT22;48483;44.640;7.494;2022-09-28T15:45:25;19.10;73.80
39957;DHT22;48483;44.640;7.494;2022-09-28T15:47:55;19.00;74.60
39957;DHT22;48483;44.640;7.494;2022-09-28T15:50:27;19.00;75.00
39957;DHT22;48483;44.640;7.494;2022-09-28T15:52:57;19.00;75.60
39957;DHT22;48483;44.640;7.494;2022-09-28T15:55:27;18.90;76.70
39957;DHT22;48483;44.640;7.494;2022-09-28T15:58:05;18.90;79.10
39957;DHT22;48483;44.640;7.494;2022-09-28T16:00:32;18.90;80.50
39957;DHT22;48483;44.640;7.494;2022-09-28T16:05:45;18.90;80.70
39957;DHT22;48483;44.640;7.494;2022-09-28T16:08:15;18.90;81.10
39957;DHT22;48483;44.640;7.494;2022-09-28T16:10:54;18.90;82.50
39957;DHT22;48483;44.640;7.494;2022-09-28T16:13:21;18.90;82.40
39957;DHT22;48483;44.640;7.494;2022-09-28T16:15:53;18.90;82.40
39957;DHT22;48483;44.640;7.494;2022-09-28T16:18:23;18.90;82.30
39957;DHT22;48483;44.640;7.494;2022-09-28T16:20:53;18.90;82.80
39957;DHT22;48483;44.640;7.494;2022-09-28T16:23:24;18.80;82.60
39957;DHT22;48483;44.640;7.494;2022-09-28T16:25:54;18.70;82.50
39957;DHT22;48483;44.640;7.494;2022-09-28T16:28:47;18.70;83.00
39957;DHT22;48483;44.640;7.494;2022-09-28T16:31:28;18.70;83.00
39957;DHT22;48483;44.640;7.494;2022-09-28T16:33:59;18.70;83.00